sensor_id;sensor_type;location;lat;lon;timestamp;P1;durP1;ratioP1;P2;durP2;ratioP2
48367;SDS011;34173;47.446;18.912;2022-08-14T00:01:57;13.05;;;8.10;;
48367;SDS011;34173;47.446;18.912;2022-08-14T00:04:29;10.45;;;7.68;;
48367;SDS011;34173;47.446;18.912;2022-08-14T00:07:08;12.45;;;7.82;;
48367;SDS011;34173;47.446;18.912;2022-08-14T00:09:37;13.38;;;8.38;;
48367;SDS011;34173;47.446;18.912;2022-08-14T00:12:24;11.60;;;7.97;;
48367;SDS011;34173;47.446;18.912;2022-08-14T00:15:02;12.25;;;7.93;;
48367;SDS011;34173;47.446;18.912;2022-08-14T00:17:34;12.15;;;7.90;;
48367;SDS011;34173;47.446;18.912;2022-08-14T00:20:14;11.77;;;7.95;;
48367;SDS011;34173;47.446;18.912;2022-08-14T00:22:57;11.35;;;7.43;;
48367;SDS011;34173;47.446;18.912;2022-08-14T00:25:38;12.23;;;8.55;;
48367;SDS011;34173;47.446;18.912;2022-08-14T00:28:10;12.00;;;7.90;;
48367;SDS011;34173;47.446;18.912;2022-08-14T00:30:42;12.20;;;8.07;;
48367;SDS011;34173;47.446;18.912;2022-08-14T00:33:09;12.82;;;8.05;;
48367;SDS011;34173;47.446;18.912;2022-08-14T00:35:43;13.07;;;7.40;;
48367;SDS011;34173;47.446;18.912;2022-08-14T00:38:31;12.13;;;8.00;;
48367;SDS011;34173;47.446;18.912;2022-08-14T00:41:04;12.95;;;8.68;;
48367;SDS011;34173;47.446;18.912;2022-08-14T00:43:37;11.43;;;8.00;;
48367;SDS011;34173;47.446;18.912;2022-08-14T00:46:11;11.50;;;8.18;;
48367;SDS011;34173;47.446;18.912;2022-08-14T00:49:00;11.50;;;8.18;;
48367;SDS011;34173;47.446;18.912;2022-08-14T00:51:28;10.73;;;7.43;;
48367;SDS011;34173;47.446;18.912;2022-08-14T00:54:05;12.75;;;7.57;;
48367;SDS011;34173;47.446;18.912;2022-08-14T00:56:49;13.27;;;8.63;;
48367;SDS011;34173;47.446;18.912;2022-08-14T00:59:23;10.43;;;7.70;;
48367;SDS011;34173;47.446;18.912;2022-08-14T01:01:53;11.05;;;8.35;;
48367;SDS011;34173;47.446;18.912;2022-08-14T01:04:24;13.10;;;8.50;;
48367;SDS011;34173;47.446;18.912;2022-08-14T01:07:13;10.50;;;7.72;;
48367;SDS011;34173;47.446;18.912;2022-08-14T01:09:48;12.70;;;7.97;;
48367;SDS011;34173;47.446;18.912;2022-08-14T01:12:18;11.82;;;8.57;;
48367;SDS011;34173;47.446;18.912;2022-08-14T01:14:56;12.30;;;8.25;;
48367;SDS011;34173;47.446;18.912;2022-08-14T01:17:26;13.02;;;8.93;;
48367;SDS011;34173;47.446;18.912;2022-08-14T01:20:16;12.50;;;8.15;;
48367;SDS011;34173;47.446;18.912;2022-08-14T01:23:10;13.35;;;8.63;;
48367;SDS011;34173;47.446;18.912;2022-08-14T01:25:47;13.73;;;9.02;;
48367;SDS011;34173;47.446;18.912;2022-08-14T01:28:18;13.15;;;8.98;;
48367;SDS011;34173;47.446;18.912;2022-08-14T01:31:12;12.85;;;8.20;;
48367;SDS011;34173;47.446;18.912;2022-08-14T01:33:43;12.35;;;8.70;;
48367;SDS011;34173;47.446;18.912;2022-08-14T01:36:34;13.40;;;8.85;;
48367;SDS011;34173;47.446;18.912;2022-08-14T01:39:13;12.52;;;8.70;;
48367;SDS011;34173;47.446;18.912;2022-08-14T01:41:43;13.50;;;9.25;;
48367;SDS011;34173;47.446;18.912;2022-08-14T01:44:15;15.52;;;9.05;;
48367;SDS011;34173;47.446;18.912;2022-08-14T01:47:06;12.35;;;9.00;;
48367;SDS011;34173;47.446;18.912;2022-08-14T01:49:49;12.18;;;8.77;;
48367;SDS011;34173;47.446;18.912;2022-08-14T01:52:34;13.05;;;8.73;;
48367;SDS011;34173;47.446;18.912;2022-08-14T01:55:24;14.77;;;9.00;;
48367;SDS011;34173;47.446;18.912;2022-08-14T01:57:58;13.70;;;8.38;;
48367;SDS011;34173;47.446;18.912;2022-08-14T02:00:48;14.38;;;8.57;;
48367;SDS011;34173;47.446;18.912;2022-08-14T02:03:23;13.68;;;8.82;;
48367;SDS011;34173;47.446;18.912;2022-08-14T02:06:00;12.00;;;8.13;;
48367;SDS011;34173;47.446;18.912;2022-08-14T02:08:48;13.02;;;8.13;;
48367;SDS011;34173;47.446;18.912;2022-08-14T02:11:21;15.10;;;8.82;;
48367;SDS011;34173;47.446;18.912;2022-08-14T02:16:23;14.55;;;9.73;;
48367;SDS011;34173;47.446;18.912;2022-08-14T02:18:53;13.38;;;8.70;;
48367;SDS011;34173;47.446;18.912;2022-08-14T02:21:24;12.70;;;8.40;;
48367;SDS011;34173;47.446;18.912;2022-08-14T02:23:53;19.50;;;8.95;;
48367;SDS011;34173;47.446;18.912;2022-08-14T02:26:27;14.57;;;8.82;;
48367;SDS011;34173;47.446;18.912;2022-08-14T02:28:59;14.23;;;8.50;;
48367;SDS011;34173;47.446;18.912;2022-08-14T02:31:30;12.02;;;8.48;;
48367;SDS011;34173;47.446;18.912;2022-08-14T02:36:52;12.68;;;8.98;;
48367;SDS011;34173;47.446;18.912;2022-08-14T02:39:33;13.00;;;8.98;;
48367;SDS011;34173;47.446;18.912;2022-08-14T02:42:03;14.82;;;8.38;;
48367;SDS011;34173;47.446;18.912;2022-08-14T02:44:32;11.80;;;8.40;;
48367;SDS011;34173;47.446;18.912;2022-08-14T02:47:06;12.37;;;8.57;;
48367;SDS011;34173;47.446;18.912;2022-08-14T02:49:45;11.52;;;8.45;;
48367;SDS011;34173;47.446;18.912;2022-08-14T02:52:21;14.63;;;9.25;;
48367;SDS011;34173;47.446;18.912;2022-08-14T02:55:08;12.25;;;8.43;;
48367;SDS011;34173;47.446;18.912;2022-08-14T02:57:36;12.37;;;9.15;;
48367;SDS011;34173;47.446;18.912;2022-08-14T03:00:07;14.25;;;9.57;;
48367;SDS011;34173;47.446;18.912;2022-08-14T03:02:37;13.07;;;9.10;;
48367;SDS011;34173;47.446;18.912;2022-08-14T03:05:24;13.18;;;8.73;;
48367;SDS011;34173;47.446;18.912;2022-08-14T03:08:09;13.13;;;9.02;;
48367;SDS011;34173;47.446;18.912;2022-08-14T03:10:42;14.20;;;9.05;;
48367;SDS011;34173;47.446;18.912;2022-08-14T03:13:18;13.43;;;9.43;;
48367;SDS011;34173;47.446;18.912;2022-08-14T03:15:48;12.55;;;8.82;;
48367;SDS011;34173;47.446;18.912;2022-08-14T03:18:25;14.52;;;9.70;;
48367;SDS011;34173;47.446;18.912;2022-08-14T03:20:59;13.73;;;9.10;;
48367;SDS011;34173;47.446;18.912;2022-08-14T03:23:28;14.77;;;9.30;;
48367;SDS011;34173;47.446;18.912;2022-08-14T03:26:05;12.98;;;8.93;;
48367;SDS011;34173;47.446;18.912;2022-08-14T03:31:09;13.27;;;8.73;;
48367;SDS011;34173;47.446;18.912;2022-08-14T03:33:39;13.55;;;8.68;;
48367;SDS011;34173;47.446;18.912;2022-08-14T03:36:09;14.43;;;8.05;;
48367;SDS011;34173;47.446;18.912;2022-08-14T03:39:02;10.65;;;7.93;;
48367;SDS011;34173;47.446;18.912;2022-08-14T03:41:51;10.93;;;8.00;;
48367;SDS011;34173;47.446;18.912;2022-08-14T03:44:22;13.27;;;8.48;;
48367;SDS011;34173;47.446;18.912;2022-08-14T03:47:10;12.65;;;8.60;;
48367;SDS011;34173;47.446;18.912;2022-08-14T03:49:42;14.38;;;8.35;;
48367;SDS011;34173;47.446;18.912;2022-08-14T03:52:16;13.27;;;8.48;;
48367;SDS011;34173;47.446;18.912;2022-08-14T03:55:08;11.43;;;8.02;;
48367;SDS011;34173;47.446;18.912;2022-08-14T03:57:39;11.02;;;7.22;;
48367;SDS011;34173;47.446;18.912;2022-08-14T04:00:08;13.35;;;8.40;;
48367;SDS011;34173;47.446;18.912;2022-08-14T04:02:40;12.52;;;7.93;;
48367;SDS011;34173;47.446;18.912;2022-08-14T04:05:13;12.07;;;7.82;;
48367;SDS011;34173;47.446;18.912;2022-08-14T04:07:43;13.77;;;8.63;;
48367;SDS011;34173;47.446;18.912;2022-08-14T04:10:26;12.63;;;8.15;;
48367;SDS011;34173;47.446;18.912;2022-08-14T04:13:00;12.65;;;7.62;;
48367;SDS011;34173;47.446;18.912;2022-08-14T04:15:33;14.95;;;7.72;;
48367;SDS011;34173;47.446;18.912;2022-08-14T04:18:21;12.13;;;7.50;;
48367;SDS011;34173;47.446;18.912;2022-08-14T04:20:48;10.70;;;7.25;;
48367;SDS011;34173;47.446;18.912;2022-08-14T04:23:22;13.18;;;7.95;;
48367;SDS011;34173;47.446;18.912;2022-08-14T04:25:59;13.48;;;8.43;;
48367;SDS011;34173;47.446;18.912;2022-08-14T04:28:28;12.43;;;7.97;;
48367;SDS011;34173;47.446;18.912;2022-08-14T04:31:17;10.70;;;6.72;;
48367;SDS011;34173;47.446;18.912;2022-08-14T04:34:06;10.57;;;6.97;;
48367;SDS011;34173;47.446;18.912;2022-08-14T04:36:34;11.55;;;7.40;;
48367;SDS011;34173;47.446;18.912;2022-08-14T04:39:21;10.75;;;7.45;;
48367;SDS011;34173;47.446;18.912;2022-08-14T04:42:12;10.32;;;7.03;;
48367;SDS011;34173;47.446;18.912;2022-08-14T04:45:20;12.45;;;7.37;;
48367;SDS011;34173;47.446;18.912;2022-08-14T04:47:50;14.07;;;7.90;;
48367;SDS011;34173;47.446;18.912;2022-08-14T04:50:49;13.05;;;8.60;;
48367;SDS011;34173;47.446;18.912;2022-08-14T04:53:22;13.02;;;8.65;;
48367;SDS011;34173;47.446;18.912;2022-08-14T04:55:52;14.02;;;9.82;;
48367;SDS011;34173;47.446;18.912;2022-08-14T04:58:25;15.27;;;9.18;;
48367;SDS011;34173;47.446;18.912;2022-08-14T05:01:01;15.50;;;10.15;;
48367;SDS011;34173;47.446;18.912;2022-08-14T05:03:39;14.75;;;9.52;;
48367;SDS011;34173;47.446;18.912;2022-08-14T05:06:10;14.73;;;9.70;;
48367;SDS011;34173;47.446;18.912;2022-08-14T05:08:58;14.15;;;9.52;;
48367;SDS011;34173;47.446;18.912;2022-08-14T05:11:27;15.60;;;9.55;;
48367;SDS011;34173;47.446;18.912;2022-08-14T05:13:56;17.17;;;10.73;;
48367;SDS011;34173;47.446;18.912;2022-08-14T05:16:44;14.63;;;9.98;;
48367;SDS011;34173;47.446;18.912;2022-08-14T05:19:13;17.20;;;10.45;;
48367;SDS011;34173;47.446;18.912;2022-08-14T05:21:51;16.67;;;10.95;;
48367;SDS011;34173;47.446;18.912;2022-08-14T05:24:42;15.07;;;10.50;;
48367;SDS011;34173;47.446;18.912;2022-08-14T05:27:10;17.12;;;10.60;;
48367;SDS011;34173;47.446;18.912;2022-08-14T05:29:37;16.67;;;10.80;;
48367;SDS011;34173;47.446;18.912;2022-08-14T05:32:05;17.67;;;10.13;;
48367;SDS011;34173;47.446;18.912;2022-08-14T05:34:33;16.10;;;9.95;;
48367;SDS011;34173;47.446;18.912;2022-08-14T05:37:01;17.12;;;10.63;;
48367;SDS011;34173;47.446;18.912;2022-08-14T05:39:29;14.35;;;9.35;;
48367;SDS011;34173;47.446;18.912;2022-08-14T05:41:58;13.48;;;9.13;;
48367;SDS011;34173;47.446;18.912;2022-08-14T05:44:26;17.15;;;9.85;;
48367;SDS011;34173;47.446;18.912;2022-08-14T05:46:57;12.93;;;9.40;;
48367;SDS011;34173;47.446;18.912;2022-08-14T05:49:25;12.50;;;8.48;;
48367;SDS011;34173;47.446;18.912;2022-08-14T05:54:29;11.95;;;8.10;;
48367;SDS011;34173;47.446;18.912;2022-08-14T05:57:02;11.85;;;7.50;;
48367;SDS011;34173;47.446;18.912;2022-08-14T05:59:31;11.45;;;7.40;;
48367;SDS011;34173;47.446;18.912;2022-08-14T06:02:06;12.43;;;7.75;;
48367;SDS011;34173;47.446;18.912;2022-08-14T06:04:37;10.77;;;7.93;;
48367;SDS011;34173;47.446;18.912;2022-08-14T06:07:05;11.10;;;7.57;;
48367;SDS011;34173;47.446;18.912;2022-08-14T06:09:33;15.90;;;7.53;;
48367;SDS011;34173;47.446;18.912;2022-08-14T06:12:07;12.27;;;7.43;;
48367;SDS011;34173;47.446;18.912;2022-08-14T06:14:35;10.82;;;7.37;;
48367;SDS011;34173;47.446;18.912;2022-08-14T06:17:05;11.27;;;7.10;;
48367;SDS011;34173;47.446;18.912;2022-08-14T06:19:33;11.30;;;7.50;;
48367;SDS011;34173;47.446;18.912;2022-08-14T06:22:00;14.38;;;7.65;;
48367;SDS011;34173;47.446;18.912;2022-08-14T06:24:28;13.05;;;7.95;;
48367;SDS011;34173;47.446;18.912;2022-08-14T06:27:02;11.48;;;7.30;;
48367;SDS011;34173;47.446;18.912;2022-08-14T06:29:33;10.93;;;7.82;;
48367;SDS011;34173;47.446;18.912;2022-08-14T06:32:01;10.82;;;7.65;;
48367;SDS011;34173;47.446;18.912;2022-08-14T06:34:50;12.77;;;8.27;;
48367;SDS011;34173;47.446;18.912;2022-08-14T06:37:38;14.52;;;8.02;;
48367;SDS011;34173;47.446;18.912;2022-08-14T06:40:07;10.10;;;7.12;;
48367;SDS011;34173;47.446;18.912;2022-08-14T06:42:56;9.43;;;6.75;;
48367;SDS011;34173;47.446;18.912;2022-08-14T06:45:33;8.50;;;6.32;;
48367;SDS011;34173;47.446;18.912;2022-08-14T06:48:02;10.40;;;6.47;;
48367;SDS011;34173;47.446;18.912;2022-08-14T06:50:38;12.20;;;6.75;;
48367;SDS011;34173;47.446;18.912;2022-08-14T06:53:06;10.00;;;6.75;;
48367;SDS011;34173;47.446;18.912;2022-08-14T06:55:33;11.32;;;6.60;;
48367;SDS011;34173;47.446;18.912;2022-08-14T06:58:12;9.68;;;6.28;;
48367;SDS011;34173;47.446;18.912;2022-08-14T07:00:56;9.52;;;6.53;;
48367;SDS011;34173;47.446;18.912;2022-08-14T07:03:51;11.48;;;6.65;;
48367;SDS011;34173;47.446;18.912;2022-08-14T07:06:51;8.43;;;6.43;;
48367;SDS011;34173;47.446;18.912;2022-08-14T07:09:22;10.23;;;6.97;;
48367;SDS011;34173;47.446;18.912;2022-08-14T07:11:50;8.68;;;6.22;;
48367;SDS011;34173;47.446;18.912;2022-08-14T07:14:17;8.70;;;5.93;;
48367;SDS011;34173;47.446;18.912;2022-08-14T07:16:45;10.30;;;6.12;;
48367;SDS011;34173;47.446;18.912;2022-08-14T07:19:15;10.43;;;6.05;;
48367;SDS011;34173;47.446;18.912;2022-08-14T07:21:47;8.27;;;5.90;;
48367;SDS011;34173;47.446;18.912;2022-08-14T07:24:16;10.85;;;6.25;;
48367;SDS011;34173;47.446;18.912;2022-08-14T07:26:52;13.88;;;6.50;;
48367;SDS011;34173;47.446;18.912;2022-08-14T07:29:19;7.50;;;6.20;;
48367;SDS011;34173;47.446;18.912;2022-08-14T07:31:52;8.23;;;6.03;;
48367;SDS011;34173;47.446;18.912;2022-08-14T07:34:20;13.90;;;6.25;;
48367;SDS011;34173;47.446;18.912;2022-08-14T07:37:07;18.27;;;6.82;;
48367;SDS011;34173;47.446;18.912;2022-08-14T07:39:35;8.30;;;6.12;;
48367;SDS011;34173;47.446;18.912;2022-08-14T07:42:04;7.53;;;6.07;;
48367;SDS011;34173;47.446;18.912;2022-08-14T07:44:33;10.45;;;6.60;;
48367;SDS011;34173;47.446;18.912;2022-08-14T07:47:12;7.70;;;5.70;;
48367;SDS011;34173;47.446;18.912;2022-08-14T07:49:45;7.95;;;6.10;;
48367;SDS011;34173;47.446;18.912;2022-08-14T07:52:39;7.00;;;5.70;;
48367;SDS011;34173;47.446;18.912;2022-08-14T07:55:12;8.30;;;6.20;;
48367;SDS011;34173;47.446;18.912;2022-08-14T07:57:46;7.47;;;6.05;;
48367;SDS011;34173;47.446;18.912;2022-08-14T08:00:19;9.68;;;6.15;;
48367;SDS011;34173;47.446;18.912;2022-08-14T08:02:59;8.55;;;5.93;;
48367;SDS011;34173;47.446;18.912;2022-08-14T08:05:27;10.68;;;6.60;;
48367;SDS011;34173;47.446;18.912;2022-08-14T08:07:55;8.40;;;6.57;;
48367;SDS011;34173;47.446;18.912;2022-08-14T08:10:23;9.20;;;6.45;;
48367;SDS011;34173;47.446;18.912;2022-08-14T08:13:18;8.88;;;5.87;;
48367;SDS011;34173;47.446;18.912;2022-08-14T08:15:54;8.27;;;6.35;;
48367;SDS011;34173;47.446;18.912;2022-08-14T08:18:24;9.18;;;6.60;;
48367;SDS011;34173;47.446;18.912;2022-08-14T08:20:57;7.93;;;6.30;;
48367;SDS011;34173;47.446;18.912;2022-08-14T08:23:27;8.10;;;6.07;;
48367;SDS011;34173;47.446;18.912;2022-08-14T08:26:07;10.95;;;6.05;;
48367;SDS011;34173;47.446;18.912;2022-08-14T08:28:34;8.32;;;6.37;;
48367;SDS011;34173;47.446;18.912;2022-08-14T08:31:03;9.63;;;6.50;;
48367;SDS011;34173;47.446;18.912;2022-08-14T08:33:34;8.70;;;5.93;;
48367;SDS011;34173;47.446;18.912;2022-08-14T08:36:04;9.77;;;5.97;;
48367;SDS011;34173;47.446;18.912;2022-08-14T08:38:38;8.10;;;5.87;;
48367;SDS011;34173;47.446;18.912;2022-08-14T08:41:26;7.10;;;5.60;;
48367;SDS011;34173;47.446;18.912;2022-08-14T08:44:03;9.53;;;5.87;;
48367;SDS011;34173;47.446;18.912;2022-08-14T08:46:31;7.37;;;6.05;;
48367;SDS011;34173;47.446;18.912;2022-08-14T08:49:02;8.63;;;6.30;;
48367;SDS011;34173;47.446;18.912;2022-08-14T08:51:30;7.20;;;5.25;;
48367;SDS011;34173;47.446;18.912;2022-08-14T08:54:10;8.13;;;6.30;;
48367;SDS011;34173;47.446;18.912;2022-08-14T08:56:49;8.90;;;6.80;;
48367;SDS011;34173;47.446;18.912;2022-08-14T08:59:26;8.48;;;6.28;;
48367;SDS011;34173;47.446;18.912;2022-08-14T09:02:01;9.10;;;5.90;;
48367;SDS011;34173;47.446;18.912;2022-08-14T09:04:35;8.30;;;6.35;;
48367;SDS011;34173;47.446;18.912;2022-08-14T09:07:25;7.95;;;6.50;;
48367;SDS011;34173;47.446;18.912;2022-08-14T09:09:53;10.88;;;6.40;;
48367;SDS011;34173;47.446;18.912;2022-08-14T09:12:29;10.57;;;6.80;;
48367;SDS011;34173;47.446;18.912;2022-08-14T09:15:03;10.40;;;6.78;;
48367;SDS011;34173;47.446;18.912;2022-08-14T09:17:39;9.93;;;6.60;;
48367;SDS011;34173;47.446;18.912;2022-08-14T09:20:09;8.35;;;6.30;;
48367;SDS011;34173;47.446;18.912;2022-08-14T09:22:41;9.00;;;6.57;;
48367;SDS011;34173;47.446;18.912;2022-08-14T09:25:15;9.40;;;6.53;;
48367;SDS011;34173;47.446;18.912;2022-08-14T09:28:03;8.45;;;6.65;;
48367;SDS011;34173;47.446;18.912;2022-08-14T09:30:33;10.13;;;7.53;;
48367;SDS011;34173;47.446;18.912;2022-08-14T09:38:37;7.62;;;5.95;;
48367;SDS011;34173;47.446;18.912;2022-08-14T09:47:16;11.88;;;6.28;;
48367;SDS011;34173;47.446;18.912;2022-08-14T09:49:43;8.07;;;5.65;;
48367;SDS011;34173;47.446;18.912;2022-08-14T09:52:19;6.80;;;5.53;;
48367;SDS011;34173;47.446;18.912;2022-08-14T09:55:00;7.35;;;4.95;;
48367;SDS011;34173;47.446;18.912;2022-08-14T09:57:29;10.25;;;4.90;;
48367;SDS011;34173;47.446;18.912;2022-08-14T10:00:08;8.32;;;5.20;;
48367;SDS011;34173;47.446;18.912;2022-08-14T10:02:57;14.23;;;5.20;;
48367;SDS011;34173;47.446;18.912;2022-08-14T10:05:32;7.78;;;5.30;;
48367;SDS011;34173;47.446;18.912;2022-08-14T10:10:51;6.60;;;5.28;;
48367;SDS011;34173;47.446;18.912;2022-08-14T10:13:29;6.78;;;4.62;;
48367;SDS011;34173;47.446;18.912;2022-08-14T10:16:16;6.57;;;5.15;;
48367;SDS011;34173;47.446;18.912;2022-08-14T10:19:13;7.32;;;5.18;;
48367;SDS011;34173;47.446;18.912;2022-08-14T10:21:42;8.25;;;5.78;;
48367;SDS011;34173;47.446;18.912;2022-08-14T10:24:42;7.00;;;4.72;;
48367;SDS011;34173;47.446;18.912;2022-08-14T10:27:18;7.37;;;5.50;;
48367;SDS011;34173;47.446;18.912;2022-08-14T10:29:50;7.28;;;4.80;;
48367;SDS011;34173;47.446;18.912;2022-08-14T10:32:24;7.47;;;4.68;;
48367;SDS011;34173;47.446;18.912;2022-08-14T10:35:07;6.82;;;4.82;;
48367;SDS011;34173;47.446;18.912;2022-08-14T10:37:43;7.35;;;5.15;;
48367;SDS011;34173;47.446;18.912;2022-08-14T10:40:13;6.57;;;4.90;;
48367;SDS011;34173;47.446;18.912;2022-08-14T10:43:14;7.28;;;5.53;;
48367;SDS011;34173;47.446;18.912;2022-08-14T10:45:51;12.37;;;5.65;;
48367;SDS011;34173;47.446;18.912;2022-08-14T10:48:40;6.65;;;4.97;;
48367;SDS011;34173;47.446;18.912;2022-08-14T10:51:22;6.75;;;4.97;;
48367;SDS011;34173;47.446;18.912;2022-08-14T10:53:53;8.35;;;5.32;;
48367;SDS011;34173;47.446;18.912;2022-08-14T10:56:29;13.32;;;5.70;;
48367;SDS011;34173;47.446;18.912;2022-08-14T10:59:05;8.07;;;5.32;;
48367;SDS011;34173;47.446;18.912;2022-08-14T11:01:35;6.65;;;4.80;;
48367;SDS011;34173;47.446;18.912;2022-08-14T11:04:25;6.82;;;5.15;;
48367;SDS011;34173;47.446;18.912;2022-08-14T11:06:57;7.53;;;4.80;;
48367;SDS011;34173;47.446;18.912;2022-08-14T11:09:25;5.62;;;4.03;;
48367;SDS011;34173;47.446;18.912;2022-08-14T11:11:58;6.20;;;4.55;;
48367;SDS011;34173;47.446;18.912;2022-08-14T11:14:51;9.27;;;4.62;;
48367;SDS011;34173;47.446;18.912;2022-08-14T11:17:32;6.95;;;4.45;;
48367;SDS011;34173;47.446;18.912;2022-08-14T11:20:01;6.80;;;4.07;;
48367;SDS011;34173;47.446;18.912;2022-08-14T11:22:30;5.80;;;3.95;;
48367;SDS011;34173;47.446;18.912;2022-08-14T11:25:19;7.70;;;4.82;;
48367;SDS011;34173;47.446;18.912;2022-08-14T11:27:51;6.53;;;4.90;;
48367;SDS011;34173;47.446;18.912;2022-08-14T11:30:21;7.68;;;5.05;;
48367;SDS011;34173;47.446;18.912;2022-08-14T11:33:11;8.38;;;5.50;;
48367;SDS011;34173;47.446;18.912;2022-08-14T11:35:38;10.23;;;6.10;;
48367;SDS011;34173;47.446;18.912;2022-08-14T11:38:14;7.30;;;5.37;;
48367;SDS011;34173;47.446;18.912;2022-08-14T11:40:46;6.20;;;4.60;;
48367;SDS011;34173;47.446;18.912;2022-08-14T11:43:14;7.20;;;4.55;;
48367;SDS011;34173;47.446;18.912;2022-08-14T11:45:44;6.28;;;4.62;;
48367;SDS011;34173;47.446;18.912;2022-08-14T11:48:22;6.68;;;4.90;;
48367;SDS011;34173;47.446;18.912;2022-08-14T11:51:12;7.53;;;5.00;;
48367;SDS011;34173;47.446;18.912;2022-08-14T11:53:42;7.30;;;5.28;;
48367;SDS011;34173;47.446;18.912;2022-08-14T11:56:17;6.03;;;4.78;;
48367;SDS011;34173;47.446;18.912;2022-08-14T11:58:55;6.82;;;4.72;;
48367;SDS011;34173;47.446;18.912;2022-08-14T12:01:28;6.72;;;4.75;;
48367;SDS011;34173;47.446;18.912;2022-08-14T12:04:17;7.47;;;4.73;;
48367;SDS011;34173;47.446;18.912;2022-08-14T12:06:59;6.43;;;4.35;;
48367;SDS011;34173;47.446;18.912;2022-08-14T12:12:12;8.57;;;4.53;;
48367;SDS011;34173;47.446;18.912;2022-08-14T12:15:03;9.93;;;5.05;;
48367;SDS011;34173;47.446;18.912;2022-08-14T12:17:42;6.25;;;4.60;;
48367;SDS011;34173;47.446;18.912;2022-08-14T12:20:18;8.68;;;5.00;;
48367;SDS011;34173;47.446;18.912;2022-08-14T12:22:59;8.93;;;4.85;;
48367;SDS011;34173;47.446;18.912;2022-08-14T12:25:31;7.32;;;4.35;;
48367;SDS011;34173;47.446;18.912;2022-08-14T12:28:02;6.50;;;4.30;;
48367;SDS011;34173;47.446;18.912;2022-08-14T12:30:53;8.57;;;4.35;;
48367;SDS011;34173;47.446;18.912;2022-08-14T12:33:23;6.40;;;4.78;;
48367;SDS011;34173;47.446;18.912;2022-08-14T12:36:03;6.97;;;4.70;;
48367;SDS011;34173;47.446;18.912;2022-08-14T12:41:15;6.18;;;4.62;;
48367;SDS011;34173;47.446;18.912;2022-08-14T12:43:51;7.32;;;4.72;;
48367;SDS011;34173;47.446;18.912;2022-08-14T12:46:43;8.10;;;4.70;;
48367;SDS011;34173;47.446;18.912;2022-08-14T12:49:13;7.10;;;5.05;;
48367;SDS011;34173;47.446;18.912;2022-08-14T12:51:54;6.57;;;4.43;;
48367;SDS011;34173;47.446;18.912;2022-08-14T12:54:23;8.25;;;4.72;;
48367;SDS011;34173;47.446;18.912;2022-08-14T12:57:08;8.07;;;5.25;;
48367;SDS011;34173;47.446;18.912;2022-08-14T12:59:44;6.45;;;4.55;;
48367;SDS011;34173;47.446;18.912;2022-08-14T13:02:20;7.62;;;4.95;;
48367;SDS011;34173;47.446;18.912;2022-08-14T13:04:53;7.65;;;5.10;;
48367;SDS011;34173;47.446;18.912;2022-08-14T13:07:25;8.35;;;4.85;;
48367;SDS011;34173;47.446;18.912;2022-08-14T13:09:59;7.55;;;4.70;;
48367;SDS011;34173;47.446;18.912;2022-08-14T13:12:48;8.38;;;4.95;;
48367;SDS011;34173;47.446;18.912;2022-08-14T13:15:37;7.30;;;5.03;;
48367;SDS011;34173;47.446;18.912;2022-08-14T13:18:06;6.50;;;5.35;;
48367;SDS011;34173;47.446;18.912;2022-08-14T13:20:36;9.02;;;5.12;;
48367;SDS011;34173;47.446;18.912;2022-08-14T13:23:18;8.30;;;5.45;;
48367;SDS011;34173;47.446;18.912;2022-08-14T13:25:57;7.72;;;5.28;;
48367;SDS011;34173;47.446;18.912;2022-08-14T13:28:26;7.57;;;5.37;;
48367;SDS011;34173;47.446;18.912;2022-08-14T13:31:00;7.00;;;4.60;;
48367;SDS011;34173;47.446;18.912;2022-08-14T13:33:38;7.30;;;5.12;;
48367;SDS011;34173;47.446;18.912;2022-08-14T13:36:08;6.72;;;4.60;;
48367;SDS011;34173;47.446;18.912;2022-08-14T13:38:37;7.18;;;5.53;;
48367;SDS011;34173;47.446;18.912;2022-08-14T13:41:10;7.12;;;5.37;;
48367;SDS011;34173;47.446;18.912;2022-08-14T13:43:38;7.68;;;5.00;;
48367;SDS011;34173;47.446;18.912;2022-08-14T13:46:26;7.05;;;5.12;;
48367;SDS011;34173;47.446;18.912;2022-08-14T13:48:56;7.03;;;5.20;;
48367;SDS011;34173;47.446;18.912;2022-08-14T13:51:26;8.13;;;5.00;;
48367;SDS011;34173;47.446;18.912;2022-08-14T13:53:56;8.18;;;4.93;;
48367;SDS011;34173;47.446;18.912;2022-08-14T13:56:38;8.00;;;5.07;;
48367;SDS011;34173;47.446;18.912;2022-08-14T13:59:06;9.68;;;5.05;;
48367;SDS011;34173;47.446;18.912;2022-08-14T14:01:34;8.25;;;5.10;;
48367;SDS011;34173;47.446;18.912;2022-08-14T14:04:14;7.40;;;5.28;;
48367;SDS011;34173;47.446;18.912;2022-08-14T14:06:47;9.20;;;5.05;;
48367;SDS011;34173;47.446;18.912;2022-08-14T14:09:20;12.93;;;5.18;;
48367;SDS011;34173;47.446;18.912;2022-08-14T14:11:51;7.05;;;5.05;;
48367;SDS011;34173;47.446;18.912;2022-08-14T14:14:26;9.30;;;5.00;;
48367;SDS011;34173;47.446;18.912;2022-08-14T14:17:13;8.68;;;5.12;;
48367;SDS011;34173;47.446;18.912;2022-08-14T14:19:42;6.85;;;4.75;;
48367;SDS011;34173;47.446;18.912;2022-08-14T14:22:13;6.82;;;4.68;;
48367;SDS011;34173;47.446;18.912;2022-08-14T14:25:04;6.05;;;4.47;;
48367;SDS011;34173;47.446;18.912;2022-08-14T14:27:32;6.53;;;4.78;;
48367;SDS011;34173;47.446;18.912;2022-08-14T14:30:08;7.60;;;4.85;;
48367;SDS011;34173;47.446;18.912;2022-08-14T14:32:55;6.80;;;4.62;;
48367;SDS011;34173;47.446;18.912;2022-08-14T14:35:31;6.93;;;4.82;;
48367;SDS011;34173;47.446;18.912;2022-08-14T14:38:06;5.85;;;4.30;;
48367;SDS011;34173;47.446;18.912;2022-08-14T14:40:35;7.22;;;4.32;;
48367;SDS011;34173;47.446;18.912;2022-08-14T14:43:25;7.57;;;4.62;;
48367;SDS011;34173;47.446;18.912;2022-08-14T14:45:54;6.12;;;4.65;;
48367;SDS011;34173;47.446;18.912;2022-08-14T14:48:24;7.93;;;4.22;;
48367;SDS011;34173;47.446;18.912;2022-08-14T14:50:56;6.12;;;4.50;;
48367;SDS011;34173;47.446;18.912;2022-08-14T14:53:25;9.43;;;4.32;;
48367;SDS011;34173;47.446;18.912;2022-08-14T14:55:57;6.22;;;4.43;;
48367;SDS011;34173;47.446;18.912;2022-08-14T14:58:45;7.10;;;4.22;;
48367;SDS011;34173;47.446;18.912;2022-08-14T15:01:14;5.45;;;4.10;;
48367;SDS011;34173;47.446;18.912;2022-08-14T15:03:43;7.35;;;3.65;;
48367;SDS011;34173;47.446;18.912;2022-08-14T15:06:12;5.43;;;3.80;;
48367;SDS011;34173;47.446;18.912;2022-08-14T15:08:44;5.65;;;3.67;;
48367;SDS011;34173;47.446;18.912;2022-08-14T15:11:24;5.62;;;3.62;;
48367;SDS011;34173;47.446;18.912;2022-08-14T15:13:56;7.43;;;3.60;;
48367;SDS011;34173;47.446;18.912;2022-08-14T15:16:26;4.65;;;3.30;;
48367;SDS011;34173;47.446;18.912;2022-08-14T15:18:54;7.93;;;4.03;;
48367;SDS011;34173;47.446;18.912;2022-08-14T15:21:23;5.37;;;3.90;;
48367;SDS011;34173;47.446;18.912;2022-08-14T15:23:53;4.95;;;3.17;;
48367;SDS011;34173;47.446;18.912;2022-08-14T15:26:20;5.95;;;3.53;;
48367;SDS011;34173;47.446;18.912;2022-08-14T15:29:01;5.80;;;3.55;;
48367;SDS011;34173;47.446;18.912;2022-08-14T15:31:33;4.40;;;3.12;;
48367;SDS011;34173;47.446;18.912;2022-08-14T15:34:03;6.20;;;4.05;;
48367;SDS011;34173;47.446;18.912;2022-08-14T15:36:57;6.37;;;4.03;;
48367;SDS011;34173;47.446;18.912;2022-08-14T15:39:25;8.20;;;3.62;;
48367;SDS011;34173;47.446;18.912;2022-08-14T15:41:59;4.30;;;3.10;;
48367;SDS011;34173;47.446;18.912;2022-08-14T15:44:29;6.57;;;3.40;;
48367;SDS011;34173;47.446;18.912;2022-08-14T15:47:02;5.68;;;3.30;;
48367;SDS011;34173;47.446;18.912;2022-08-14T15:49:33;6.15;;;3.60;;